Time;durP1;ratioP1;P1;durP2;ratioP2;P2;SDS_P1;SDS_P2;PMS_P1;PMS_P2;Temp;Humidity;BMP_temperature;BMP_pressure;BME280_temperature;BME280_humidity;BME280_pressure;Samples;Min_cycle;Max_cycle;Signal;HPM_P1;HPM_P2
2022/10/14 00:01:25;;;;;;;8.57;5.40;;;;;;;29.48;28.06;100987.97;5046551;28;20059;-74
2022/10/14 00:03:55;;;;;;;8.90;5.10;;;;;;;29.40;27.56;100982.09;5039125;28;20052;-72
2022/10/14 00:06:25;;;;;;;9.05;5.50;;;;;;;29.30;28.49;100981.66;5046534;28;20048;-74
2022/10/14 00:08:54;;;;;;;11.30;5.15;;;;;;;29.23;28.99;100977.56;5039639;28;20112;-74
2022/10/14 00:11:25;;;;;;;7.35;5.07;;;;;;;29.18;28.60;100979.53;5045226;28;20127;-74
2022/10/14 00:13:56;;;;;;;8.45;5.10;;;;;;;29.12;27.87;100974.50;5035500;28;20049;-73
2022/10/14 00:16:29;;;;;;;6.73;4.43;;;;;;;29.02;28.33;100972.22;5038894;28;20127;-73
2022/10/14 00:18:58;;;;;;;9.25;4.95;;;;;;;28.97;27.90;100968.00;5040693;28;20047;-73
2022/10/14 00:21:27;;;;;;;8.05;4.60;;;;;;;28.89;28.18;100971.00;5036841;28;20045;-74
2022/10/14 00:23:56;;;;;;;12.98;4.68;;;;;;;28.82;28.67;100965.09;5037697;28;20620;-75
2022/10/14 00:26:27;;;;;;;8.10;4.45;;;;;;;28.75;27.38;100971.59;5045146;28;20045;-73
2022/10/14 00:28:57;;;;;;;8.27;4.95;;;;;;;28.69;28.15;100955.03;5044067;28;20501;-73
2022/10/14 00:31:28;;;;;;;8.85;4.90;;;;;;;28.60;28.81;100962.47;5043029;28;20049;-73
2022/10/14 00:33:56;;;;;;;6.78;4.00;;;;;;;28.53;27.96;100960.13;5043477;28;20045;-74
2022/10/14 00:36:34;;;;;;;7.45;4.70;;;;;;;28.44;28.85;100953.38;5035442;28;20049;-73
2022/10/14 00:39:03;;;;;;;6.57;4.38;;;;;;;28.36;29.20;100956.34;5037016;28;20502;-73
2022/10/14 00:41:34;;;;;;;8.88;4.65;;;;;;;28.27;28.64;100953.22;5045482;28;20444;-73
2022/10/14 00:44:04;;;;;;;8.52;4.72;;;;;;;28.20;28.79;100948.13;5043519;28;20060;-73
2022/10/14 00:46:36;;;;;;;6.57;4.50;;;;;;;28.11;30.34;100947.66;5032908;28;20053;-74
2022/10/14 00:49:12;;;;;;;;;;;;;;;28.03;30.31;100955.06;5041469;28;20057;-73
2022/10/14 00:51:43;;;;;;;8.13;4.78;;;;;;;27.92;30.61;100958.16;5041301;28;20326;-72
2022/10/14 00:54:15;;;;;;;6.43;4.60;;;;;;;27.82;31.20;100952.28;5039337;28;20512;-73
2022/10/14 00:56:46;;;;;;;10.50;5.07;;;;;;;27.69;31.25;100946.56;5043247;28;20044;-73
2022/10/14 00:59:16;;;;;;;8.38;4.97;;;;;;;27.58;32.33;100948.81;5043747;28;20644;-73
2022/10/14 01:01:46;;;;;;;7.25;4.35;;;;;;;27.45;31.60;100942.22;5043105;28;20534;-73
2022/10/14 01:04:15;;;;;;;10.75;4.68;;;;;;;27.32;33.16;100947.13;5038401;28;20056;-73
2022/10/14 01:06:51;;;;;;;8.35;5.10;;;;;;;27.17;32.75;100943.22;5034773;28;20053;-73
2022/10/14 01:09:29;;;;;;;7.50;5.05;;;;;;;26.99;34.04;100947.41;5035260;28;20068;-73
2022/10/14 01:12:08;;;;;;;9.95;5.25;;;;;;;26.79;33.88;100940.13;5033960;28;20553;-73
2022/10/14 01:14:46;;;;;;;8.05;5.47;;;;;;;26.67;34.18;100943.22;5036882;28;20056;-72
2022/10/14 01:17:28;;;;;;;7.72;5.47;;;;;;;26.53;33.52;100938.38;5038773;28;20530;-73
2022/10/14 01:20:22;;;;;;;10.95;5.35;;;;;;;26.41;34.24;100942.31;5042715;28;20107;-73
2022/10/14 01:23:07;;;;;;;10.45;5.93;;;;;;;26.25;34.88;100946.34;5041622;28;20052;-73
2022/10/14 01:25:48;;;;;;;16.38;6.85;;;;;;;26.08;34.48;100939.81;5040284;28;20126;-73
2022/10/14 01:28:30;;;;;;;9.77;5.93;;;;;;;25.95;34.94;100951.72;5040641;28;20081;-74
2022/10/14 01:31:04;;;;;;;8.75;5.55;;;;;;;25.79;35.73;100947.78;5039902;28;20344;-73
2022/10/14 01:33:38;;;;;;;13.43;5.72;;;;;;;25.64;36.14;100947.34;5039526;28;20065;-73
2022/10/14 01:36:14;;;;;;;21.55;6.15;;;;;;;25.50;35.97;100952.19;5040298;28;20064;-73
2022/10/14 01:38:47;;;;;;;18.02;6.15;;;;;;;25.38;37.00;100953.41;5034119;28;20500;-73
2022/10/14 01:41:21;;;;;;;17.02;6.03;;;;;;;25.22;37.62;100955.63;5045374;28;20143;-74
2022/10/14 01:43:53;;;;;;;10.18;5.60;;;;;;;25.07;37.58;100956.03;5034758;28;20041;-73
2022/10/14 01:46:26;;;;;;;14.50;5.65;;;;;;;24.89;38.22;100946.78;5040152;28;20045;-73
2022/10/14 01:49:05;;;;;;;16.00;5.88;;;;;;;24.73;38.78;100954.25;5035620;28;20061;-73
2022/10/14 01:51:39;;;;;;;11.63;5.80;;;;;;;24.59;38.59;100956.41;5041151;28;20049;-74
2022/10/14 01:54:11;;;;;;;14.13;5.88;;;;;;;24.44;39.12;100961.16;5047535;28;20131;-74
2022/10/14 01:56:43;;;;;;;16.05;5.97;;;;;;;24.32;39.95;100950.00;5048124;28;20046;-73
2022/10/14 01:59:13;;;;;;;10.77;6.03;;;;;;;24.19;40.43;100949.41;5046337;28;20137;-73
2022/10/14 02:01:43;;;;;;;19.20;6.50;;;;;;;24.07;40.50;100957.63;5049439;28;20045;-73
2022/10/14 02:04:16;;;;;;;15.70;6.13;;;;;;;23.95;41.26;100956.16;5050854;28;20049;-73
2022/10/14 02:06:52;;;;;;;22.25;6.82;;;;;;;23.83;41.31;100954.66;5045185;28;20053;-74
2022/10/14 02:09:28;;;;;;;23.30;7.00;;;;;;;23.71;40.98;100954.88;5053392;28;20049;-74
2022/10/14 02:12:08;;;;;;;21.75;7.05;;;;;;;23.58;41.63;100960.44;5041651;28;20418;-74
2022/10/14 02:14:44;;;;;;;26.67;7.20;;;;;;;23.46;41.63;100950.13;5042531;28;20172;-74
2022/10/14 02:17:22;;;;;;;23.75;6.72;;;;;;;23.35;42.19;100958.25;5043101;28;20471;-74
2022/10/14 02:19:56;;;;;;;24.70;7.53;;;;;;;23.25;42.40;100955.81;5041941;28;20052;-74
2022/10/14 02:22:30;;;;;;;22.60;6.28;;;;;;;23.13;42.63;100963.09;5045952;28;20081;-74
2022/10/14 02:25:04;;;;;;;16.35;6.10;;;;;;;23.01;42.26;100960.69;5046035;28;20084;-73
2022/10/14 02:27:33;;;;;;;21.40;6.47;;;;;;;22.89;42.38;100964.41;5044108;28;20699;-73
2022/10/14 02:30:03;;;;;;;18.10;6.00;;;;;;;22.78;42.96;100961.94;5045035;28;20099;-73
2022/10/14 02:32:34;;;;;;;18.55;6.03;;;;;;;22.66;42.86;100962.16;5045539;28;20956;-73
2022/10/14 02:35:06;;;;;;;19.75;6.22;;;;;;;22.52;43.44;100964.19;5046526;28;20115;-73
2022/10/14 02:37:35;;;;;;;18.65;6.65;;;;;;;22.43;43.22;100972.25;5041265;28;20048;-73
2022/10/14 02:40:09;;;;;;;19.60;6.70;;;;;;;22.32;43.03;100964.50;5041061;28;20487;-73
2022/10/14 02:42:38;;;;;;;14.27;6.10;;;;;;;22.20;44.18;100962.88;5043478;28;20067;-73
2022/10/14 02:45:09;;;;;;;19.30;5.82;;;;;;;22.09;44.56;100970.94;5044560;28;20048;-74
2022/10/14 02:47:39;;;;;;;14.90;6.38;;;;;;;21.97;44.69;100965.88;5049624;28;20506;-73
2022/10/14 02:50:09;;;;;;;19.08;6.00;;;;;;;21.85;44.61;100974.81;5049561;28;20548;-74
2022/10/14 02:52:38;;;;;;;13.75;6.95;;;;;;;21.77;44.80;100968.75;5042663;28;20128;-73
2022/10/14 02:55:07;;;;;;;15.80;6.93;;;;;;;21.71;44.98;100966.19;5043338;28;20041;-73
2022/10/14 02:57:35;;;;;;;16.75;7.10;;;;;;;21.64;44.59;100968.03;5043656;28;20048;-73
2022/10/14 03:00:06;;;;;;;16.67;6.88;;;;;;;21.56;45.33;100974.31;5041910;28;20049;-73
2022/10/14 03:02:34;;;;;;;20.30;6.85;;;;;;;21.47;46.03;100980.56;5046104;28;20050;-73
2022/10/14 03:05:05;;;;;;;21.30;7.75;;;;;;;21.36;46.39;100975.38;5042212;28;20045;-73
2022/10/14 03:07:34;;;;;;;12.82;7.30;;;;;;;21.27;46.60;100971.09;5043084;28;20058;-73
2022/10/14 03:10:03;;;;;;;14.63;6.70;;;;;;;21.21;46.51;100972.91;5048293;28;20502;-73
2022/10/14 03:12:31;;;;;;;12.48;7.05;;;;;;;21.13;47.17;100970.38;5038102;28;20052;-73
2022/10/14 03:15:00;;;;;;;13.65;7.60;;;;;;;21.06;47.68;100968.69;5036448;28;20079;-73
2022/10/14 03:17:29;;;;;;;16.35;8.10;;;;;;;20.96;47.58;100967.94;5041528;28;20144;-73
2022/10/14 03:19:58;;;;;;;12.85;8.13;;;;;;;20.89;46.00;100966.22;5041039;28;20553;-74
2022/10/14 03:22:28;;;;;;;17.90;7.80;;;;;;;20.80;47.15;100972.47;5043215;28;20072;-72
2022/10/14 03:24:57;;;;;;;18.85;7.75;;;;;;;20.71;46.59;100978.66;5040831;28;20132;-74
2022/10/14 03:27:25;;;;;;;18.88;8.98;;;;;;;20.65;47.13;100983.97;5039187;28;20422;-73
2022/10/14 03:29:54;;;;;;;14.32;8.50;;;;;;;20.57;47.01;100980.56;5042169;28;20592;-73
2022/10/14 03:32:22;;;;;;;14.45;8.32;;;;;;;20.52;47.54;100974.41;5038537;28;20049;-73
2022/10/14 03:34:51;;;;;;;18.30;8.70;;;;;;;20.44;48.05;100979.72;5044039;28;20057;-73
2022/10/14 03:37:20;;;;;;;24.88;11.93;;;;;;;20.42;49.03;100978.00;5037354;28;20455;-73
2022/10/14 03:39:50;;;;;;;20.33;10.35;;;;;;;20.37;48.84;100972.78;5048197;28;20153;-73
2022/10/14 03:42:18;;;;;;;18.50;9.27;;;;;;;20.34;48.45;100979.81;5038356;28;20053;-73
2022/10/14 03:44:47;;;;;;;16.40;8.20;;;;;;;20.28;48.50;100978.97;5039263;28;20049;-73
2022/10/14 03:47:16;;;;;;;20.23;9.00;;;;;;;20.21;47.65;100977.28;5047730;28;20119;-73
2022/10/14 03:49:44;;;;;;;16.92;8.30;;;;;;;20.18;48.20;100976.41;5046411;28;20041;-73
2022/10/14 03:52:13;;;;;;;17.88;8.50;;;;;;;20.15;47.77;100979.94;5043924;28;20053;-73
2022/10/14 03:54:41;;;;;;;17.70;8.82;;;;;;;20.13;48.90;100979.06;5047245;28;20509;-73
2022/10/14 03:57:12;;;;;;;14.52;8.40;;;;;;;20.09;48.61;100977.34;5038470;28;20041;-73
2022/10/14 03:59:41;;;;;;;14.20;8.32;;;;;;;20.07;46.82;100979.13;5041702;28;20048;-73
2022/10/14 04:02:09;;;;;;;13.45;8.15;;;;;;;20.05;47.29;100980.88;5043773;28;20561;-72
2022/10/14 04:04:38;;;;;;;14.07;7.88;;;;;;;20.01;47.45;100973.91;5042662;28;20037;-73
2022/10/14 04:07:06;;;;;;;12.80;6.22;;;;;;;19.94;47.12;100973.06;5042967;28;20059;-73
2022/10/14 04:09:35;;;;;;;12.75;8.05;;;;;;;19.86;47.03;100980.97;5042863;28;20040;-73
2022/10/14 04:12:04;;;;;;;13.20;7.68;;;;;;;19.84;46.90;100977.50;5042706;28;20061;-73
2022/10/14 04:14:34;;;;;;;14.02;8.68;;;;;;;19.83;46.58;100980.97;5039667;28;20525;-73
2022/10/14 04:17:02;;;;;;;13.90;8.52;;;;;;;19.80;46.67;100988.00;5040587;28;20049;-74
2022/10/14 04:19:31;;;;;;;15.82;7.32;;;;;;;19.77;47.60;100988.91;5041168;28;20082;-74
2022/10/14 04:22:00;;;;;;;13.43;7.18;;;;;;;19.71;47.50;100991.56;5040660;28;20074;-73
2022/10/14 04:24:29;;;;;;;17.83;7.10;;;;;;;19.69;48.10;100989.81;5041607;28;20984;-74
2022/10/14 04:26:57;;;;;;;15.35;8.38;;;;;;;19.64;49.05;100989.81;5039292;28;20574;-73
2022/10/14 04:29:26;;;;;;;14.18;8.45;;;;;;;19.56;49.54;100986.31;5041952;28;20049;-74
2022/10/14 04:31:56;;;;;;;20.27;9.23;;;;;;;19.53;49.25;100989.84;5043061;28;20044;-73
2022/10/14 04:34:25;;;;;;;18.23;8.93;;;;;;;19.49;49.14;100995.97;5041983;28;20126;-74
2022/10/14 04:36:54;;;;;;;13.38;7.97;;;;;;;19.46;49.71;100999.47;5038665;28;20136;-73
2022/10/14 04:39:22;;;;;;;18.13;9.82;;;;;;;19.41;49.22;100998.63;5043041;28;20045;-74
2022/10/14 04:41:51;;;;;;;18.08;9.38;;;;;;;19.36;49.86;101003.03;5038480;28;20100;-73
2022/10/14 04:44:19;;;;;;;17.85;9.93;;;;;;;19.30;50.32;101003.03;5047718;28;20375;-74
2022/10/14 04:46:48;;;;;;;18.55;9.93;;;;;;;19.26;50.11;101001.28;5045580;28;20453;-74
2022/10/14 04:49:18;;;;;;;18.08;9.77;;;;;;;19.18;50.80;100998.69;5045919;28;20451;-74
2022/10/14 04:51:47;;;;;;;17.70;10.15;;;;;;;19.11;50.74;101003.97;5046673;28;20059;-74
2022/10/14 04:54:16;;;;;;;16.38;8.35;;;;;;;19.06;50.21;100998.72;5038923;28;20509;-73
2022/10/14 04:56:44;;;;;;;13.15;8.23;;;;;;;19.00;50.87;100999.59;5046496;28;20037;-73
2022/10/14 04:59:13;;;;;;;18.13;8.20;;;;;;;18.96;51.05;101000.47;5039090;28;20060;-74
2022/10/14 05:01:42;;;;;;;18.65;9.20;;;;;;;18.93;51.10;101000.47;5047367;28;20044;-74
2022/10/14 05:04:10;;;;;;;14.10;8.00;;;;;;;18.87;51.82;100995.22;5046665;28;20102;-74
2022/10/14 05:06:40;;;;;;;17.17;8.45;;;;;;;18.89;51.67;101003.09;5043471;28;20102;-74
2022/10/14 05:09:09;;;;;;;23.50;9.45;;;;;;;18.86;51.96;101009.22;5038525;28;20523;-74
2022/10/14 05:11:38;;;;;;;14.82;8.15;;;;;;;18.81;51.74;100995.25;5043643;28;20445;-73
2022/10/14 05:14:06;;;;;;;12.95;7.85;;;;;;;18.77;51.82;101003.97;5042305;28;20261;-74
2022/10/14 05:16:35;;;;;;;15.90;7.80;;;;;;;18.73;52.27;101007.44;5041902;28;20053;-73
2022/10/14 05:19:04;;;;;;;14.07;9.23;;;;;;;18.66;52.51;101010.94;5043369;28;20479;-74
2022/10/14 05:21:33;;;;;;;16.08;8.68;;;;;;;18.60;52.38;101011.81;5042224;28;20049;-73
2022/10/14 05:24:03;;;;;;;20.55;9.45;;;;;;;18.53;53.09;101003.09;5042873;28;20049;-73
2022/10/14 05:26:31;;;;;;;18.10;8.52;;;;;;;18.48;53.22;101002.19;5040766;28;20045;-74
2022/10/14 05:29:00;;;;;;;18.27;9.20;;;;;;;18.43;53.91;100999.56;5044804;28;20048;-73
2022/10/14 05:31:29;;;;;;;17.15;9.10;;;;;;;18.40;53.67;101009.19;5034849;28;20399;-74
2022/10/14 05:33:57;;;;;;;21.05;11.05;;;;;;;18.34;54.57;100998.69;5035317;28;20057;-73
2022/10/14 05:36:26;;;;;;;23.92;10.00;;;;;;;18.28;54.49;100998.66;5038720;28;20920;-74
2022/10/14 05:38:57;;;;;;;20.55;10.45;;;;;;;18.24;54.54;100997.78;5040284;28;20477;-73
2022/10/14 05:41:27;;;;;;;21.73;11.30;;;;;;;18.18;54.43;101001.25;5034194;28;20059;-74
2022/10/14 05:43:56;;;;;;;15.07;7.78;;;;;;;18.16;54.76;100999.50;5039875;28;20088;-74
2022/10/14 05:46:24;;;;;;;18.33;7.82;;;;;;;18.11;53.94;100993.41;5041576;28;20509;-74
2022/10/14 05:48:53;;;;;;;42.40;9.73;;;;;;;18.05;54.56;100991.66;5042091;28;20065;-74
2022/10/14 05:51:21;;;;;;;14.30;6.68;;;;;;;18.01;54.16;100997.75;5046510;28;20106;-74
2022/10/14 05:53:50;;;;;;;15.77;6.63;;;;;;;17.99;52.50;101004.72;5035464;28;20052;-74
2022/10/14 05:56:19;;;;;;;11.80;6.75;;;;;;;17.96;53.51;100994.25;5046737;28;20408;-73
2022/10/14 05:58:49;;;;;;;13.48;6.38;;;;;;;17.95;52.16;101001.19;5041547;28;20049;-73
2022/10/14 06:01:18;;;;;;;12.25;6.65;;;;;;;17.95;52.93;100997.72;5040244;28;20410;-74
2022/10/14 06:03:50;;;;;;;12.48;6.78;;;;;;;17.96;51.19;101002.09;5043497;28;20060;-74
2022/10/14 06:06:19;;;;;;;10.65;6.45;;;;;;;17.95;51.28;101000.34;5033768;28;20055;-73
2022/10/14 06:08:48;;;;;;;13.95;6.00;;;;;;;17.94;52.32;100995.97;5032522;28;20499;-73
2022/10/14 06:11:16;;;;;;;9.85;5.75;;;;;;;17.94;51.41;100998.59;5032780;28;20053;-74
2022/10/14 06:13:45;;;;;;;10.88;5.97;;;;;;;17.96;52.04;101002.09;5037193;28;20175;-74
2022/10/14 06:16:15;;;;;;;10.77;6.07;;;;;;;17.97;51.43;100999.47;5041401;28;20060;-74
2022/10/14 06:18:44;;;;;;;10.57;5.63;;;;;;;17.97;51.68;100999.47;5042550;28;20491;-74
2022/10/14 06:21:13;;;;;;;12.45;7.50;;;;;;;17.95;50.96;100995.09;5041815;28;20139;-74
2022/10/14 06:23:41;;;;;;;10.88;6.10;;;;;;;17.95;51.68;100995.97;5038775;28;20064;-73
2022/10/14 06:26:10;;;;;;;9.25;6.28;;;;;;;17.94;51.31;100995.97;5036515;28;20037;-73
2022/10/14 06:28:39;;;;;;;14.65;6.78;;;;;;;17.92;50.85;100992.47;5045554;28;20045;-73
2022/10/14 06:31:08;;;;;;;11.50;6.35;;;;;;;17.89;51.91;100997.69;5038640;28;20562;-73
2022/10/14 06:33:38;;;;;;;11.82;6.75;;;;;;;17.88;51.11;100998.56;5038023;28;20086;-73
2022/10/14 06:36:07;;;;;;;11.18;6.22;;;;;;;17.88;51.54;100998.56;5035657;28;20071;-72
2022/10/14 06:38:36;;;;;;;12.98;6.85;;;;;;;17.86;51.20;101001.16;5042820;28;20050;-73
2022/10/14 06:41:04;;;;;;;13.65;7.88;;;;;;;17.83;51.65;101003.78;5042357;28;20483;-73
2022/10/14 06:43:34;;;;;;;11.23;6.25;;;;;;;17.79;51.73;101000.25;5043420;28;20582;-74
2022/10/14 06:46:03;;;;;;;13.60;6.60;;;;;;;17.78;51.35;101001.13;5041979;28;20099;-73
2022/10/14 06:48:47;;;;;;;14.32;6.45;;;;;;;17.76;51.80;100997.63;5048668;27;20499;-72
2022/10/14 06:51:16;;;;;;;11.15;6.78;;;;;;;17.74;51.34;100991.50;5044751;28;20088;-73
2022/10/14 06:53:44;;;;;;;11.65;7.00;;;;;;;17.71;52.61;100991.50;5034753;28;20042;-73
2022/10/14 06:56:13;;;;;;;13.63;6.20;;;;;;;17.68;52.33;100986.22;5044873;28;20049;-73
2022/10/14 06:58:42;;;;;;;10.93;6.93;;;;;;;17.64;52.44;100978.38;5048172;28;20695;-73
2022/10/14 07:01:10;;;;;;;11.02;6.93;;;;;;;17.59;52.11;100981.88;5046478;28;20510;-74
2022/10/14 07:03:41;;;;;;;8.88;5.32;;;;;;;17.55;52.25;100979.22;5038295;28;20056;-73
2022/10/14 07:06:10;;;;;;;12.32;6.13;;;;;;;17.51;52.29;100977.47;5043708;28;20045;-73
2022/10/14 07:08:38;;;;;;;12.13;7.20;;;;;;;17.46;53.01;100985.28;5045998;28;20049;-74
2022/10/14 07:11:07;;;;;;;11.80;6.15;;;;;;;17.41;52.94;100981.78;5051016;28;20045;-75
2022/10/14 07:13:36;;;;;;;9.52;5.95;;;;;;;17.37;53.09;100980.88;5044848;28;20079;-74
2022/10/14 07:16:05;;;;;;;10.75;6.45;;;;;;;17.33;53.22;100978.25;5038046;28;20063;-74
2022/10/14 07:18:34;;;;;;;10.73;5.80;;;;;;;17.29;52.64;100982.56;5042992;28;20522;-74
2022/10/14 07:21:05;;;;;;;15.45;6.40;;;;;;;17.24;53.03;100978.19;5045139;28;20052;-74
2022/10/14 07:23:34;;;;;;;10.00;5.60;;;;;;;17.19;53.08;100975.53;5036499;28;20060;-74
2022/10/14 07:26:03;;;;;;;12.75;6.85;;;;;;;17.13;53.53;100980.72;5036796;28;20738;-73
2022/10/14 07:28:32;;;;;;;14.05;6.68;;;;;;;17.11;53.02;100977.22;5040441;28;20048;-74
2022/10/14 07:31:03;;;;;;;9.23;5.03;;;;;;;17.06;53.83;100973.72;5040776;28;20073;-74
2022/10/14 07:33:32;;;;;;;18.80;6.50;;;;;;;17.04;54.11;100981.56;5043506;28;20207;-74
2022/10/14 07:36:11;;;;;;;20.80;6.07;;;;;;;17.00;53.93;100981.53;5043497;28;20495;-74
2022/10/14 07:38:40;;;;;;;13.50;6.32;;;;;;;16.93;54.57;100978.00;5042105;28;20041;-73
2022/10/14 07:41:15;;;;;;;11.98;6.07;;;;;;;16.90;54.09;100981.44;5046853;28;20115;-73
2022/10/14 07:43:44;;;;;;;14.05;6.68;;;;;;;16.86;54.08;100984.03;5044954;28;20049;-73
2022/10/14 07:46:14;;;;;;;10.73;6.35;;;;;;;16.82;54.14;100982.28;5042489;28;20049;-74
2022/10/14 07:48:43;;;;;;;11.60;6.10;;;;;;;16.78;54.02;100976.09;5045838;28;20057;-74
2022/10/14 07:51:13;;;;;;;11.15;5.70;;;;;;;16.74;54.36;100977.84;5046235;28;20744;-73
2022/10/14 07:53:41;;;;;;;10.82;6.32;;;;;;;16.70;54.15;100985.66;5043137;28;20053;-72
2022/10/14 07:56:10;;;;;;;9.27;5.40;;;;;;;16.66;54.29;100983.88;5040375;28;20052;-75
2022/10/14 07:58:39;;;;;;;12.48;5.35;;;;;;;16.61;54.61;100972.50;5046016;28;20103;-73
2022/10/14 08:01:07;;;;;;;12.85;5.10;;;;;;;16.58;54.34;100975.06;5044752;28;20049;-74
2022/10/14 08:03:36;;;;;;;11.10;5.80;;;;;;;16.51;54.73;100982.84;5048517;28;20107;-74
2022/10/14 08:06:05;;;;;;;15.60;5.25;;;;;;;16.48;54.68;100980.22;5044830;28;20175;-74
2022/10/14 08:08:36;;;;;;;8.27;5.43;;;;;;;16.44;54.36;100981.03;5047767;28;20041;-74
2022/10/14 08:11:07;;;;;;;10.93;5.60;;;;;;;16.40;55.33;100978.41;5046806;28;20077;-75
2022/10/14 08:13:36;;;;;;;11.02;5.63;;;;;;;16.36;54.78;100974.91;5045157;28;20053;-74
2022/10/14 08:16:04;;;;;;;13.70;5.95;;;;;;;16.26;54.79;100963.50;5042602;28;20123;-74
2022/10/14 08:18:33;;;;;;;9.18;5.70;;;;;;;16.26;54.78;100975.66;5043947;28;20630;-73
2022/10/14 08:21:01;;;;;;;9.48;5.20;;;;;;;16.22;54.86;100977.38;5045103;28;20525;-74
2022/10/14 08:23:31;;;;;;;11.90;5.40;;;;;;;16.19;55.55;100979.06;5035066;28;20503;-74
2022/10/14 08:26:01;;;;;;;8.98;5.25;;;;;;;16.14;55.27;100979.03;5040679;28;20049;-74
2022/10/14 08:28:30;;;;;;;8.68;5.13;;;;;;;16.11;55.89;100979.88;5039209;28;20494;-74
2022/10/14 08:30:59;;;;;;;9.93;5.10;;;;;;;16.07;55.83;100983.31;5040366;28;20048;-74
2022/10/14 08:33:27;;;;;;;13.63;5.57;;;;;;;16.03;55.96;100984.13;5040939;28;20538;-75
2022/10/14 08:35:56;;;;;;;11.35;6.40;;;;;;;16.01;56.56;100984.97;5040666;28;20125;-73
2022/10/14 08:38:25;;;;;;;12.02;5.72;;;;;;;15.98;56.19;100987.56;5042567;28;20048;-73
2022/10/14 08:41:03;;;;;;;14.55;6.38;;;;;;;15.94;56.19;100994.47;5040999;28;20596;-75
2022/10/14 08:43:37;;;;;;;10.77;5.20;;;;;;;15.92;56.84;100991.00;5037664;28;20060;-75
2022/10/14 08:46:12;;;;;;;12.27;5.97;;;;;;;15.89;56.34;100993.53;5040519;28;20429;-74
2022/10/14 08:48:41;;;;;;;8.77;4.90;;;;;;;15.85;56.68;100991.75;5043435;27;20486;-74
2022/10/14 08:51:21;;;;;;;10.57;5.43;;;;;;;15.83;57.20;100991.75;5040938;28;20501;-75
2022/10/14 08:53:55;;;;;;;11.35;5.35;;;;;;;15.79;57.39;100991.69;5035129;28;20554;-74
2022/10/14 08:56:25;;;;;;;10.50;4.95;;;;;;;15.77;57.42;100993.41;5038323;28;20594;-75
2022/10/14 08:59:01;;;;;;;11.43;5.65;;;;;;;15.74;57.60;100994.25;5047360;28;20045;-73
2022/10/14 09:01:32;;;;;;;9.25;5.00;;;;;;;15.73;57.70;100994.22;5045740;28;20450;-75
2022/10/14 09:04:04;;;;;;;12.38;6.10;;;;;;;15.69;57.89;100994.16;5042708;28;20048;-74
2022/10/14 09:06:34;;;;;;;10.20;5.23;;;;;;;15.67;57.60;100997.63;5035140;28;20065;-74
2022/10/14 09:09:10;;;;;;;11.32;5.18;;;;;;;15.63;58.02;101001.91;5048196;28;20057;-74
2022/10/14 09:11:41;;;;;;;11.35;4.90;;;;;;;15.61;58.23;100998.41;5039109;28;20044;-75
2022/10/14 09:14:18;;;;;;;8.88;5.13;;;;;;;15.57;58.58;101012.25;5041874;28;20061;-75
2022/10/14 09:16:49;;;;;;;10.93;5.60;;;;;;;15.55;58.27;101002.66;5040184;28;20049;-74
2022/10/14 09:19:27;;;;;;;11.13;5.50;;;;;;;15.49;59.24;101003.47;5039440;28;20503;-75
2022/10/14 09:21:56;;;;;;;14.48;4.38;;;;;;;15.47;58.76;101010.38;5029833;28;20045;-74
2022/10/14 09:24:27;;;;;;;9.77;4.90;;;;;;;15.43;59.43;100998.16;5042802;28;20783;-75
2022/10/14 09:26:59;;;;;;;8.23;4.50;;;;;;;15.40;59.50;101003.34;5039111;28;20495;-74
2022/10/14 09:29:31;;;;;;;10.70;4.95;;;;;;;15.37;59.60;101006.78;5045019;28;20660;-74
2022/10/14 09:32:02;;;;;;;10.38;4.93;;;;;;;15.35;60.26;100994.59;5036213;28;20057;-74
2022/10/14 09:34:35;;;;;;;9.48;5.03;;;;;;;15.32;60.11;100999.72;5032947;28;20046;-74
2022/10/14 09:37:21;;;;;;;8.85;5.00;;;;;;;15.28;59.81;100997.09;5042659;28;20283;-73
2022/10/14 09:39:51;;;;;;;11.70;4.85;;;;;;;15.27;59.75;100991.84;5034201;28;20044;-74
2022/10/14 09:42:23;;;;;;;9.52;4.95;;;;;;;15.25;59.77;100998.78;5039686;28;20062;-74
2022/10/14 09:45:08;;;;;;;12.43;4.77;;;;;;;15.22;60.59;100994.38;5037300;28;20061;-74
2022/10/14 09:47:52;;;;;;;15.18;5.72;;;;;;;15.23;60.68;100990.03;5031024;28;20049;-73
2022/10/14 09:50:30;;;;;;;11.45;5.30;;;;;;;15.21;60.26;100990.03;5031412;27;20080;-72
2022/10/14 09:53:03;;;;;;;12.23;6.18;;;;;;;15.20;60.55;100990.00;5023084;28;20411;-73
2022/10/14 09:55:32;;;;;;;13.63;5.50;;;;;;;15.18;60.36;100992.59;5022926;28;20049;-73
2022/10/14 09:58:08;;;;;;;12.30;5.68;;;;;;;15.12;60.26;100982.09;5015739;28;20053;-73
2022/10/14 10:00:39;;;;;;;11.77;5.35;;;;;;;15.04;60.99;100973.28;5032161;28;20103;-73
2022/10/14 10:03:08;;;;;;;12.52;5.32;;;;;;;15.10;61.03;100983.81;5020181;28;20655;-73
2022/10/14 10:05:37;;;;;;;13.40;5.95;;;;;;;15.10;60.73;100980.31;5023159;28;20060;-74
2022/10/14 10:08:16;;;;;;;12.60;5.20;;;;;;;15.09;60.79;100976.81;5015239;28;20057;-74
2022/10/14 10:10:59;;;;;;;10.32;5.13;;;;;;;15.05;60.92;100975.03;5031764;28;20138;-74
2022/10/14 10:13:37;;;;;;;11.60;5.72;;;;;;;15.03;60.54;100971.53;5017548;28;20144;-74
2022/10/14 10:16:09;;;;;;;12.43;5.72;;;;;;;15.01;60.75;100968.03;5022920;28;20077;-74
2022/10/14 10:18:37;;;;;;;9.38;5.60;;;;;;;14.96;61.16;100969.69;5022696;28;20049;-74
2022/10/14 10:21:08;;;;;;;11.30;5.80;;;;;;;14.93;61.16;100965.28;5027909;28;20046;-74
2022/10/14 10:23:37;;;;;;;10.70;5.43;;;;;;;14.91;62.18;100976.53;5029610;28;20057;-74
2022/10/14 10:26:27;;;;;;;12.30;5.85;;;;;;;14.82;62.04;100967.75;5023604;28;20045;-74
2022/10/14 10:28:57;;;;;;;9.88;5.57;;;;;;;14.85;62.23;100982.56;5023614;28;20578;-74
2022/10/14 10:31:48;;;;;;;14.35;5.78;;;;;;;14.82;62.27;100978.19;5024866;28;20430;-73
2022/10/14 10:34:45;;;;;;;10.68;5.05;;;;;;;14.76;62.64;100980.69;5028258;28;20088;-73
2022/10/14 10:37:25;;;;;;;10.02;5.20;;;;;;;14.68;63.32;100986.59;5019173;28;20385;-73
2022/10/14 10:40:17;;;;;;;8.32;4.70;;;;;;;14.56;63.74;100982.06;5025896;28;20160;-74
2022/10/14 10:42:55;;;;;;;11.70;4.85;;;;;;;14.46;65.48;100989.69;5030023;28;20064;-73
2022/10/14 10:45:39;;;;;;;12.50;6.10;;;;;;;14.39;66.45;100974.81;5020536;28;20096;-73
2022/10/14 10:48:17;;;;;;;9.75;5.30;;;;;;;14.32;67.80;100980.78;5024677;28;20041;-74
2022/10/14 10:50:57;;;;;;;11.55;5.47;;;;;;;14.27;68.82;100986.72;5043686;27;20050;-73
2022/10/14 10:53:38;;;;;;;10.95;5.32;;;;;;;14.18;69.27;100990.06;5049049;28;20136;-74
2022/10/14 10:56:17;;;;;;;11.00;5.82;;;;;;;14.11;70.31;100995.97;5043077;28;20056;-74
2022/10/14 10:59:00;;;;;;;15.77;6.05;;;;;;;14.04;70.45;100985.47;5038943;28;20138;-74
2022/10/14 11:01:39;;;;;;;12.27;4.95;;;;;;;13.97;71.15;100986.22;5044022;28;20145;-74
2022/10/14 11:04:26;;;;;;;10.52;4.55;;;;;;;13.93;71.42;100987.00;5035498;28;20065;-74
2022/10/14 11:12:46;;;;;;;11.60;4.80;;;;;;;13.79;73.15;100985.84;5040277;28;19931;-74
2022/10/14 11:15:34;;;;;;;9.32;5.10;;;;;;;13.76;73.39;100985.78;5042505;28;20205;-74
2022/10/14 11:18:09;;;;;;;8.82;4.70;;;;;;;13.71;73.98;100979.59;5040064;28;20061;-74
2022/10/14 11:20:53;;;;;;;13.32;6.03;;;;;;;13.65;74.28;100984.66;5038813;28;20064;-74
2022/10/14 11:23:44;;;;;;;9.93;5.15;;;;;;;13.62;75.30;100988.09;5038119;28;20548;-74
2022/10/14 11:26:29;;;;;;;10.63;5.70;;;;;;;13.60;75.61;100990.66;5044821;28;20491;-74
2022/10/14 11:29:05;;;;;;;10.98;5.50;;;;;;;13.56;76.00;100991.47;5035862;28;20060;-75
2022/10/14 11:31:41;;;;;;;11.32;5.00;;;;;;;13.53;75.89;100986.16;5038284;28;20163;-74
2022/10/14 11:34:32;;;;;;;11.50;5.03;;;;;;;13.49;75.03;100979.19;5036708;28;20172;-74
2022/10/14 11:37:12;;;;;;;14.05;5.13;;;;;;;13.46;75.17;100973.88;5046256;28;20119;-75
2022/10/14 11:39:49;;;;;;;11.27;5.20;;;;;;;13.45;75.18;100979.06;5040928;28;20046;-75
2022/10/14 11:42:41;;;;;;;9.57;5.35;;;;;;;13.43;75.15;100979.03;5041630;28;20057;-74
2022/10/14 11:45:38;;;;;;;11.13;5.43;;;;;;;13.39;73.92;100974.59;5041251;28;20463;-75
2022/10/14 11:48:17;;;;;;;18.42;4.85;;;;;;;13.35;74.04;100970.19;5043997;28;20099;-73